DAL7627 KDTW-KCVG
Flight info
| Callsign | DAL7627 |
|---|---|
| Flight time | N/A |
| Altitude | 28000 |
| Route | SNDRS3 TORRR DEBAR ARBAS RID MEEKR |
| Aircraft | CRJ9/M-SDFGIRWY/S |
Departure
| Time | 2026-05-06 23:09 |
|---|---|
| Airport | Detroit Metropolitan Wayne County Airport (KDTW) |
Arrival
| Time | N/A |
|---|---|
| Airport | Cincinnati Northern Kentucky International Airport (KCVG) |
| Time | Latitude | Longitude | Altitude | Speed | Heading |
|---|---|---|---|---|---|
| 2026-05-06 22:38 | 42.20439 | -83.36175 | 647 ft | 0 kts | 123° |
| 2026-05-06 22:54 | 42.20441 | -83.36179 | 648 ft | 1 kts | 123° |
| 2026-05-06 22:54 | 42.20454 | -83.36204 | 648 ft | 3 kts | 123° |
| 2026-05-06 22:54 | 42.20465 | -83.36227 | 651 ft | 3 kts | 123° |
| 2026-05-06 22:54 | 42.20476 | -83.36249 | 651 ft | 3 kts | 123° |
| 2026-05-06 22:55 | 42.20487 | -83.36272 | 649 ft | 3 kts | 133° |
| 2026-05-06 22:55 | 42.20494 | -83.36275 | 651 ft | 0 kts | 191° |
| 2026-05-06 23:02 | 42.20491 | -83.36276 | 649 ft | 2 kts | 191° |
| 2026-05-06 23:02 | 42.20464 | -83.36282 | 648 ft | 6 kts | 189° |
| 2026-05-06 23:02 | 42.20413 | -83.36307 | 648 ft | 10 kts | 207° |
| 2026-05-06 23:03 | 42.20342 | -83.36358 | 649 ft | 13 kts | 211° |
| 2026-05-06 23:03 | 42.20247 | -83.36403 | 648 ft | 15 kts | 182° |
| 2026-05-06 23:03 | 42.20188 | -83.36354 | 648 ft | 9 kts | 105° |
| 2026-05-06 23:03 | 42.20183 | -83.36321 | 648 ft | 10 kts | 100° |
| 2026-05-06 23:04 | 42.20169 | -83.36207 | 648 ft | 14 kts | 97° |
| 2026-05-06 23:04 | 42.20162 | -83.36057 | 648 ft | 18 kts | 88° |
| 2026-05-06 23:04 | 42.20166 | -83.35874 | 648 ft | 21 kts | 89° |
| 2026-05-06 23:04 | 42.20169 | -83.35692 | 648 ft | 0 kts | 89° |
| 2026-05-06 23:05 | 42.20170 | -83.35682 | 648 ft | 3 kts | 89° |
| 2026-05-06 23:05 | 42.20170 | -83.35633 | 648 ft | 8 kts | 89° |
| 2026-05-06 23:05 | 42.20172 | -83.35538 | 648 ft | 12 kts | 88° |
| 2026-05-06 23:05 | 42.20175 | -83.35400 | 648 ft | 17 kts | 88° |
| 2026-05-06 23:06 | 42.20182 | -83.35223 | 648 ft | 20 kts | 71° |
| 2026-05-06 23:06 | 42.20286 | -83.35124 | 648 ft | 20 kts | 27° |
| 2026-05-06 23:06 | 42.20420 | -83.35029 | 648 ft | 23 kts | 30° |
| 2026-05-06 23:06 | 42.20558 | -83.35004 | 648 ft | 18 kts | 17° |
| 2026-05-06 23:07 | 42.20664 | -83.34926 | 648 ft | 17 kts | 26° |
| 2026-05-06 23:07 | 42.20729 | -83.34956 | 648 ft | 9 kts | 312° |
| 2026-05-06 23:07 | 42.20760 | -83.35028 | 648 ft | 9 kts | 301° |
| 2026-05-06 23:07 | 42.20806 | -83.35085 | 647 ft | 9 kts | 346° |
| 2026-05-06 23:08 | 42.20861 | -83.35069 | 646 ft | 7 kts | 32° |
| 2026-05-06 23:08 | 42.20988 | -83.34973 | 646 ft | 52 kts | 28° |
| 2026-05-06 23:08 | 42.21535 | -83.34577 | 649 ft | 124 kts | 26° |
| 2026-05-06 23:08 | 42.22438 | -83.33929 | 726 ft | 169 kts | 24° |
| 2026-05-06 23:09 | 42.23509 | -83.33152 | 1408 ft | 176 kts | 27° |
| 2026-05-06 23:09 | 42.24531 | -83.32293 | 2370 ft | 172 kts | 31° |
| 2026-05-06 23:09 | 42.25532 | -83.31334 | 3047 ft | 182 kts | 33° |
| 2026-05-06 23:09 | 42.26529 | -83.30275 | 3835 ft | 177 kts | 36° |
| 2026-05-06 23:10 | 42.27403 | -83.29285 | 4543 ft | 169 kts | 37° |
| 2026-05-06 23:10 | 42.28339 | -83.28204 | 4816 ft | 192 kts | 38° |
| 2026-05-06 23:10 | 42.29361 | -83.26800 | 4898 ft | 231 kts | 55° |
| 2026-05-06 23:10 | 42.29713 | -83.24636 | 5359 ft | 248 kts | 102° |
| 2026-05-06 23:11 | 42.28918 | -83.22570 | 6097 ft | 244 kts | 126° |
| 2026-05-06 23:11 | 42.27992 | -83.20847 | 7460 ft | 214 kts | 131° |
| 2026-05-06 23:11 | 42.27079 | -83.19288 | 8286 ft | 209 kts | 131° |
| 2026-05-06 23:11 | 42.26196 | -83.17755 | 8723 ft | 223 kts | 132° |
| 2026-05-06 23:12 | 42.25230 | -83.16128 | 9395 ft | 224 kts | 133° |
| 2026-05-06 23:12 | 42.24544 | -83.15007 | 9429 ft | 246 kts | 134° |
| 2026-05-06 23:12 | 42.23489 | -83.13204 | 9518 ft | 271 kts | 125° |
| 2026-05-06 23:13 | 42.22635 | -83.11043 | 10604 ft | 250 kts | 118° |
| 2026-05-06 23:13 | 42.22010 | -83.09065 | 11921 ft | 212 kts | 118° |
| 2026-05-06 23:13 | 42.21380 | -83.07174 | 11987 ft | 242 kts | 122° |
| 2026-05-06 23:13 | 42.20430 | -83.05139 | 11807 ft | 267 kts | 147° |
| 2026-05-06 23:14 | 42.18721 | -83.04261 | 11583 ft | 273 kts | 193° |
| 2026-05-06 23:14 | 42.17166 | -83.05687 | 10992 ft | 291 kts | 248° |
| 2026-05-06 23:14 | 42.16410 | -83.07741 | 13454 ft | 185 kts | 245° |
| 2026-05-06 23:14 | 42.15828 | -83.08827 | 15797 ft | 125 kts | 234° |
| 2026-05-06 23:15 | 42.15127 | -83.09715 | 15633 ft | 163 kts | 233° |
| 2026-05-06 23:15 | 42.14216 | -83.10948 | 15245 ft | 206 kts | 231° |
| 2026-05-06 23:15 | 42.13045 | -83.12266 | 15487 ft | 216 kts | 221° |
| 2026-05-06 23:15 | 42.11817 | -83.13131 | 16804 ft | 189 kts | 213° |
| 2026-05-06 23:16 | 42.10570 | -83.13699 | 17295 ft | 195 kts | 210° |
| 2026-05-06 23:16 | 42.09289 | -83.14342 | 17362 ft | 208 kts | 213° |
| 2026-05-06 23:16 | 42.07969 | -83.15154 | 17506 ft | 221 kts | 214° |
| 2026-05-06 23:16 | 42.07051 | -83.15768 | 17745 ft | 223 kts | 216° |
| 2026-05-06 23:17 | 42.05682 | -83.16689 | 18419 ft | 216 kts | 212° |
| 2026-05-06 23:17 | 42.04324 | -83.17440 | 19039 ft | 207 kts | 213° |
| 2026-05-06 23:17 | 42.02998 | -83.18233 | 19349 ft | 210 kts | 214° |
| 2026-05-06 23:17 | 42.01642 | -83.19118 | 19250 ft | 230 kts | 216° |
| 2026-05-06 23:18 | 42.00107 | -83.20271 | 18021 ft | 292 kts | 217° |
| 2026-05-06 23:18 | 41.98280 | -83.21726 | 18016 ft | 301 kts | 223° |
| 2026-05-06 23:18 | 41.97033 | -83.23552 | 19820 ft | 246 kts | 241° |
| 2026-05-06 23:18 | 41.96263 | -83.25679 | 19581 ft | 272 kts | 250° |
| 2026-05-06 23:19 | 41.95453 | -83.28176 | 18865 ft | 311 kts | 245° |
| 2026-05-06 23:19 | 41.94342 | -83.30864 | 18217 ft | 345 kts | 240° |
| 2026-05-06 23:19 | 41.92971 | -83.33677 | 17604 ft | 373 kts | 238° |
| 2026-05-06 23:19 | 41.91503 | -83.36507 | 18453 ft | 360 kts | 237° |
| 2026-05-06 23:20 | 41.90108 | -83.39195 | 19458 ft | 343 kts | 238° |
| 2026-05-06 23:20 | 41.88788 | -83.41785 | 20298 ft | 330 kts | 238° |
| 2026-05-06 23:20 | 41.87504 | -83.44318 | 20854 ft | 327 kts | 239° |
| 2026-05-06 23:20 | 41.86222 | -83.46857 | 21205 ft | 329 kts | 239° |
| 2026-05-06 23:21 | 41.84969 | -83.49338 | 21529 ft | 331 kts | 239° |
| 2026-05-06 23:21 | 41.83722 | -83.51807 | 21855 ft | 332 kts | 239° |
| 2026-05-06 23:21 | 41.82420 | -83.54378 | 22152 ft | 335 kts | 239° |
| 2026-05-06 23:21 | 41.81121 | -83.56942 | 22440 ft | 337 kts | 239° |
| 2026-05-06 23:22 | 41.79805 | -83.59530 | 22951 ft | 332 kts | 239° |
| 2026-05-06 23:22 | 41.78511 | -83.62094 | 23256 ft | 333 kts | 239° |
| 2026-05-06 23:22 | 41.77206 | -83.64667 | 23533 ft | 334 kts | 239° |
| 2026-05-06 23:22 | 41.75894 | -83.67242 | 23789 ft | 334 kts | 239° |
| 2026-05-06 23:23 | 41.74613 | -83.69759 | 24054 ft | 333 kts | 240° |
| 2026-05-06 23:23 | 41.73330 | -83.72281 | 24315 ft | 332 kts | 240° |
| 2026-05-06 23:23 | 41.72041 | -83.74812 | 24559 ft | 331 kts | 240° |
| 2026-05-06 23:23 | 41.70702 | -83.77325 | 24776 ft | 334 kts | 234° |
| 2026-05-06 23:24 | 41.68923 | -83.79399 | 24994 ft | 341 kts | 226° |
| 2026-05-06 23:24 | 41.67009 | -83.81298 | 25193 ft | 344 kts | 223° |
| 2026-05-06 23:24 | 41.64977 | -83.83025 | 25385 ft | 347 kts | 220° |
| 2026-05-06 23:24 | 41.62949 | -83.84598 | 25558 ft | 348 kts | 219° |
| 2026-05-06 23:25 | 41.60912 | -83.86178 | 25680 ft | 347 kts | 220° |
| 2026-05-06 23:25 | 41.58842 | -83.87790 | 26024 ft | 342 kts | 221° |
| 2026-05-06 23:25 | 41.56810 | -83.89377 | 26184 ft | 342 kts | 221° |
| 2026-05-06 23:25 | 41.54768 | -83.91001 | 26330 ft | 341 kts | 222° |
| 2026-05-06 23:26 | 41.52734 | -83.92640 | 26472 ft | 342 kts | 222° |
| 2026-05-06 23:26 | 41.50697 | -83.94282 | 26616 ft | 342 kts | 222° |
| 2026-05-06 23:26 | 41.48663 | -83.95924 | 26749 ft | 341 kts | 222° |
| 2026-05-06 23:26 | 41.46696 | -83.97508 | 26886 ft | 342 kts | 222° |
| 2026-05-06 23:27 | 41.44658 | -83.99138 | 27014 ft | 342 kts | 222° |
| 2026-05-06 23:27 | 41.42615 | -84.00767 | 27130 ft | 342 kts | 222° |
| 2026-05-06 23:27 | 41.40571 | -84.02394 | 27201 ft | 342 kts | 223° |
| 2026-05-06 23:27 | 41.38531 | -84.04000 | 27417 ft | 339 kts | 223° |
| 2026-05-06 23:28 | 41.36529 | -84.05594 | 27522 ft | 339 kts | 223° |
| 2026-05-06 23:28 | 41.34475 | -84.07228 | 27625 ft | 340 kts | 223° |
| 2026-05-06 23:28 | 41.32443 | -84.08838 | 27725 ft | 340 kts | 223° |
| 2026-05-06 23:28 | 41.30436 | -84.10426 | 27829 ft | 340 kts | 223° |
| 2026-05-06 23:29 | 41.28396 | -84.12038 | 27927 ft | 340 kts | 223° |
| 2026-05-06 23:29 | 41.26358 | -84.13643 | 27974 ft | 341 kts | 223° |
| 2026-05-06 23:29 | 41.24214 | -84.15115 | 27996 ft | 351 kts | 218° |
| 2026-05-06 23:30 | 41.19697 | -84.17585 | 27959 ft | 360 kts | 216° |
| 2026-05-06 23:30 | 41.17362 | -84.18808 | 27997 ft | 360 kts | 216° |
| 2026-05-06 23:30 | 41.15102 | -84.20004 | 28012 ft | 362 kts | 216° |
| 2026-05-06 23:31 | 41.10475 | -84.22452 | 28025 ft | 364 kts | 216° |
| 2026-05-06 23:31 | 41.05748 | -84.24954 | 28019 ft | 367 kts | 216° |
| 2026-05-06 23:32 | 41.00972 | -84.27475 | 28017 ft | 370 kts | 216° |
| 2026-05-06 23:32 | 40.98582 | -84.28735 | 27941 ft | 371 kts | 216° |
| 2026-05-06 23:32 | 40.96209 | -84.29982 | 28013 ft | 371 kts | 216° |
| 2026-05-06 23:33 | 40.91472 | -84.32476 | 28010 ft | 373 kts | 216° |
| 2026-05-06 23:33 | 40.86646 | -84.35010 | 28007 ft | 374 kts | 215° |
| 2026-05-06 23:34 | 40.81792 | -84.37555 | 28008 ft | 375 kts | 216° |
| 2026-05-06 23:34 | 40.79359 | -84.38820 | 28000 ft | 376 kts | 215° |
| 2026-05-06 23:34 | 40.76926 | -84.40088 | 27949 ft | 375 kts | 216° |
| 2026-05-06 23:34 | 40.74679 | -84.41607 | 27984 ft | 360 kts | 224° |
| 2026-05-06 23:35 | 40.72601 | -84.43416 | 28000 ft | 356 kts | 226° |
| 2026-05-06 23:35 | 40.68854 | -84.47479 | 28008 ft | 349 kts | 231° |
| 2026-05-06 23:36 | 40.65316 | -84.51771 | 28011 ft | 349 kts | 232° |
| 2026-05-06 23:36 | 40.61794 | -84.55950 | 28010 ft | 351 kts | 231° |
| 2026-05-06 23:37 | 40.58127 | -84.60212 | 28009 ft | 351 kts | 231° |
| 2026-05-06 23:37 | 40.54457 | -84.64468 | 28010 ft | 352 kts | 231° |
| 2026-05-06 23:38 | 40.50780 | -84.68726 | 28020 ft | 352 kts | 231° |
| 2026-05-06 23:38 | 40.47125 | -84.72950 | 28009 ft | 352 kts | 231° |
| 2026-05-06 23:39 | 40.43440 | -84.77206 | 28011 ft | 353 kts | 231° |
| 2026-05-06 23:39 | 40.39817 | -84.81384 | 28014 ft | 353 kts | 231° |
| 2026-05-06 23:40 | 40.36125 | -84.85631 | 27999 ft | 353 kts | 231° |
| 2026-05-06 23:40 | 40.34277 | -84.87756 | 27988 ft | 353 kts | 230° |
| 2026-05-06 23:40 | 40.32447 | -84.89861 | 27995 ft | 353 kts | 230° |
| 2026-05-06 23:40 | 40.30634 | -84.91819 | 27996 ft | 361 kts | 224° |
| 2026-05-06 23:41 | 40.28218 | -84.93090 | 28006 ft | 395 kts | 205° |
| 2026-05-06 23:41 | 40.22668 | -84.94000 | 28038 ft | 401 kts | 203° |
| 2026-05-06 23:42 | 40.17175 | -84.95129 | 28038 ft | 395 kts | 207° |
| 2026-05-06 23:42 | 40.14698 | -84.96136 | 28039 ft | 380 kts | 213° |
| 2026-05-06 23:42 | 40.12037 | -84.96797 | 27989 ft | 416 kts | 196° |
| 2026-05-06 23:42 | 40.09008 | -84.96156 | 28015 ft | 457 kts | 178° |
| 2026-05-06 23:43 | 40.06071 | -84.94365 | 28035 ft | 482 kts | 168° |
| 2026-05-06 23:43 | 40.00114 | -84.90761 | 28021 ft | 457 kts | 179° |
| 2026-05-06 23:43 | 39.97264 | -84.89727 | 28018 ft | 446 kts | 183° |
| 2026-05-06 23:44 | 39.94253 | -84.88896 | 28019 ft | 439 kts | 186° |
| 2026-05-06 23:44 | 39.91249 | -84.88168 | 27976 ft | 440 kts | 186° |
| 2026-05-06 23:44 | 39.88312 | -84.87424 | 28008 ft | 441 kts | 185° |
| 2026-05-06 23:45 | 39.82311 | -84.85815 | 28022 ft | 443 kts | 185° |
| 2026-05-06 23:45 | 39.79330 | -84.85346 | 27857 ft | 419 kts | 197° |
| 2026-05-06 23:45 | 39.76568 | -84.85951 | 27832 ft | 384 kts | 213° |
| 2026-05-06 23:45 | 39.74303 | -84.87388 | 28226 ft | 357 kts | 222° |
| 2026-05-06 23:46 | 39.72196 | -84.89003 | 27613 ft | 349 kts | 219° |
| 2026-05-06 23:46 | 39.69930 | -84.89975 | 27161 ft | 366 kts | 203° |
| 2026-05-06 23:46 | 39.67510 | -84.90513 | 26900 ft | 333 kts | 211° |